| Station | Date | Time | Temp (°F) | RH (%) | Dew Pt (°F) | Wind Spd (mph) | Wind Dir (°) | Wind Gust (mph) | Latest Rain (In) | Daily Rain (In) | Daily Max Temp (°F) | Daily Min Temp (°F) |
|---|---|---|---|---|---|---|---|---|---|---|---|---|
| Montesol | 9/4/26 | 1345 | 68.8 6.5 | - | - | - | - | - | 0.00 | 0.00 | 68.9 5.5 | 42.9 9.4 |
| Pope Valley (Weeks Lake) | 9/4/26 | 1345 | 73.9 7.7 | 36 34 | 45.5 10.8 | 4.0 1.2 | SSE | 148 | 10.3 2.8 | 0.00 | 0.00 | 74.6 7.8 | 40.9 16.2 |
| Dollarhide Base | 9/4/26 | 1345 | 78.5 10.8 | 38 41 | 50.6 10.4 | 4.3 1.8 | SW | 215 | 10.2 1.6 | 0.00 | 0.00 | 79.8 10.3 | 47.8 10.3 |
| Dollarhide 16A Remote | 9/4/26 | 1345 | 77.1 9.0 | 39 36 | 50.5 9.5 | - | - | - | - | - | 78.5 10.0 | 46.6 11.1 |
| Hardin Rd (Eakle) | 9/4/26 | 1345 | 74.4 8.5 | - | - | - | - | - | - | - | 75.5 6.7 | 44.5 14.4 |
| Angwin | 9/4/26 | 1345 | 65.1 8.5 | 52 48 | 47.0 9.6 | 2.0 3.5 | SSE | 157 | 8.2 4.3 | 0.00 | 0.01 | 65.8 8.0 | 47.6 4.0 |
| Lower Angwin (Pioneer) | 9/4/26 | 1345 | 67.3 6.9 | - | - | 3.7 0.3 | SW | 236 | 9.8 0.8 | - | - | 68.5 7.4 | 38.5 15.0 |
| Las Posadas (Cal Fire) | 9/4/26 | 1345 | 69.7 8.9 | 47 47 | 48.4 10.8 | 7.3 2.2 | SSW | 197 | 15.2 2.2 | 0.00 | 0.01 | 70.9 9.5 | 47.2 7.7 |
| Lower Chiles Valley (Brown) | 9/4/26 | 1345 | 73.0 6.7 | 36 38 | 44.5 13.3 | 3.5 2.2 | S | 176 | 8.6 8.7 | 0.00 | 0.00 | 73.8 5.9 | 47.1 8.2 |
| Moss Creek Vineyard/Reservior | 9/4/26 | 1230 | 74.2 10.9 | 37 53 | 46.3 14.1 | - | - | - | 0.00 | 0.00 | 76.8 12.1 | 47.4 5.4 |
| Max | 78.5 | 52 | 50.6 | 7.3 | - | 15.2 | 0.00 | 0.01 | 79.8 | 47.8 | ||
| Avg | 72.2 | 41 | 47.5 | 4.1 | - | 10.4 | 0.00 | - | - | - | ||
| Min | 65.1 | 36 | 44.5 | 2.0 | - | 8.2 | 0.00 | 0.00 | 65.8 | 38.5 |
| Station | Date | Time | Temp (°F) | RH (%) | Dew Pt (°F) | Wind Spd (mph) | Wind Dir (°) | Wind Gust (mph) | Latest Rain (In) | Daily Rain (In) | Daily Max Temp (°F) | Daily Min Temp (°F) |
|---|---|---|---|---|---|---|---|---|---|---|---|---|
| Tenma (North Calistoga) | 9/4/26 | 1345 | 76.4 8.5 | - | - | - | - | - | 0.00 | 0.00 | 76.4 8.3 | 52.0 3.7 |
| Calistoga-Solari | 9/4/26 | 1345 | 73.6 6.2 | 43 32 | 49.7 9.7 | 3.9 1.9 | W | 260 | 7.7 3.3 | 0.00 | 0.00 | 74.1 6.0 | 48.7 6.7 |
| Calistoga-North | 9/4/26 | 1345 | 76.8 10.1 | 42 40 | 52.0 9.0 | - | - | - | 0.00 | 0.00 | 77.8 10.3 | 50.3 6.6 |
| Twomey Calistoga | 9/4/26 | 1345 | 77.8 4.2 | 36 25 | 49.1 10.6 | 3.6 0.1 | W | 260 | 7.8 1.6 | 0.00 | 0.00 | 78.6 4.7 | 48.9 6.6 |
| Paloma | 9/4/26 | 1345 | 77.8 9.3 | 40 35 | 51.8 8.7 | 4.2 0.9 | NNE | 18 | 10.6 2.6 | 0.00 | 0.00 | 78.4 9.0 | 51.2 6.6 |
| Calistoga (Ranch 78) | 9/4/26 | 1345 | 76.8 7.3 | 37 29 | 48.8 9.2 | 2.8 1.1 | NW | 312 | 8.8 0.1 | 0.00 | 0.00 | 76.8 5.3 | 52.2 3.7 |
| Diamond Mtn (Schramsberg) | 9/4/26 | 1345 | 71.9 3.2 | 43 25 | 48.0 9.7 | - | - | - | 0.00 | 0.01 | 73.7 4.0 | 51.2 4.1 |
| Diamond Mtn (McEachran) | 9/4/26 | 1345 | 71.5 3.1 | 42 25 | 47.4 9.8 | - | - | - | - | - | 71.8 2.7 | 51.7 4.6 |
| Deer Park | 9/4/26 | 1345 | 71.7 6.3 | 42 36 | 47.2 11.2 | 4.7 3.0 | SSW | 205 | 9.6 5.3 | 0.00 | 0.00 | 75.0 9.6 | 54.3 2.5 |
| St. Helena-North | 9/4/26 | 1345 | 75.0 7.3 | 36 37 | 46.1 12.6 | 1.3 0.1 | NNW | 340 | 6.6 0.9 | 0.00 | 0.00 | 75.8 7.3 | 51.7 4.3 |
| St. Helena (NVV Office) | 9/4/26 | 1345 | 72.6 4.5 | - | - | 2.2 0.2 | ESE | 114 | 4.6 0.8 | 0.00 | 0.00 | 76.3 7.8 | 49.0 8.5 |
| Tiara Fria (East St. Helena) | 9/4/26 | 1345 | 74.3 6.7 | 43 34 | 50.4 9.8 | 2.2 0.7 | N | 353 | 6.1 3.0 | 0.00 | 0.00 | 74.9 7.0 | 49.2 7.6 |
| Prisoner Winery | 9/4/26 | 1345 | 77.4 9.0 | 37 35 | 49.2 10.0 | 2.8 0.0 | NNW | 332 | 7.0 0.4 | 0.00 | 0.00 | 78.6 9.6 | 48.2 4.9 |
| Rutherford Hill Estate | 9/4/26 | 1345 | 76.4 10.1 | 40 43 | 50.4 10.5 | 3.2 2.1 | W | 259 | 9.2 4.2 | 0.00 | 0.01 | 77.6 11.1 | 51.5 4.9 |
| Rutherford-North (Mee Ln) | 9/4/26 | 1345 | 76.8 8.8 | 39 36 | 49.9 9.7 | 2.2 1.5 | SW | 214 | 7.0 3.5 | 0.00 | 0.00 | 77.5 8.9 | 44.0 6.9 |
| Rutherford (STS) | 9/4/26 | 1345 | 79.6 9.5 | 42 32 | 54.2 7.1 | 2.4 0.3 | WSW | 250 | 6.7 0.4 | 0.00 | 0.01 | 80.2 9.6 | 45.6 5.6 |
| Silver Oak OV | 9/4/26 | 1345 | 75.1 7.3 | 41 35 | 50.0 9.9 | 2.1 1.3 | SE | 131 | 6.9 0.6 | 0.00 | 0.01 | 75.9 8.0 | 50.2 0.9 |
| Oakville-NE (Ranch 88) | 9/4/26 | 1345 | 72.9 5.0 | 42 31 | 48.8 10.2 | 1.3 2.0 | S | 188 | 7.0 1.1 | 0.00 | 0.01 | 75.2 7.2 | 48.9 1.0 |
| Crossroads Ranch | 9/4/26 | 1345 | 74.4 6.8 | 49 28 | 54.2 6.1 | 3.0 0.9 | ESE | 109 | 8.6 2.3 | 0.00 | 0.00 | 74.8 6.9 | 51.4 0.6 |
| Oakville | 9/4/26 | 1345 | 75.0 7.1 | 41 34 | 49.5 10.0 | 2.9 1.0 | ESE | 122 | 9.0 0.6 | 0.00 | 0.00 | 76.2 7.6 | 51.3 1.0 |
| To Kalon Remote (TKKE) | 9/4/26 | 1345 | 76.3 7.2 | - | - | - | - | - | - | - | 77.2 7.3 | 47.6 7.3 |
| To Kalon | 9/4/26 | 1345 | 75.9 6.9 | 41 31 | 50.6 9.1 | 2.9 0.4 | SW | 220 | 6.9 0.4 | 0.00 | 0.00 | 77.2 7.0 | 48.6 7.9 |
| To Kalon Remote (TKN5) | 9/4/26 | 1345 | 75.5 6.1 | - | - | - | - | - | - | - | 76.5 4.5 | 48.0 8.8 |
| Jump Rock | 9/4/26 | 1345 | 69.3 7.7 | 49 46 | 49.2 11.0 | 3.4 0.7 | W | 275 | 8.8 1.1 | 0.00 | 0.01 | 69.9 7.6 | 46.0 1.9 |
| State Lane Ranch | 9/4/26 | 1345 | 76.9 10.2 | 45 39 | 54.0 7.7 | 4.0 0.3 | SSW | 196 | 10.6 3.3 | 0.00 | 0.01 | 77.6 9.0 | 52.5 2.1 |
| Yountville (Ranch 67) | 9/4/26 | 1345 | 74.1 6.5 | 42 28 | 49.7 8.1 | 2.9 1.0 | WNW | 298 | 6.7 1.2 | 0.00 | 0.01 | 74.5 6.6 | 52.7 1.9 |
| Borreo (Soda Canyon) | 9/4/26 | 1145 | 66.8 3.9 | 63 18 | 53.7 3.2 | 2.3 0.8 | SSE | 158 | 6.9 1.6 | 0.00 | 0.00 | 67.7 4.7 | 50.0 3.6 |
| Wappo Hill Floor | 9/4/26 | 1345 | 75.6 8.0 | 42 36 | 51.1 9.5 | 3.7 0.3 | SSW | 201 | 8.5 1.2 | 0.00 | 0.01 | 76.2 7.0 | 52.1 3.6 |
| Wappo Hill | 9/4/26 | 1345 | 74.4 6.6 | 44 33 | 50.8 9.2 | 4.5 0.1 | WSW | 244 | 11.5 0.7 | 0.00 | 0.00 | 76.1 7.1 | 54.3 2.0 |
| Stags Leap Dist (Chimney Rock) | 9/4/26 | 1345 | 74.7 7.0 | 47 34 | 53.2 8.6 | 3.1 1.9 | ENE | 76 | 7.0 2.2 | 0.00 | 0.00 | 75.0 6.3 | 55.6 0.4 |
| Stags Leap Dist (Silverado Vineyards) | 9/4/26 | 1345 | 74.1 6.5 | 41 30 | 48.9 9.0 | 2.7 0.4 | S | 170 | 7.2 1.2 | 0.00 | 0.00 | 75.4 7.6 | 53.2 2.1 |
| Yountville-SE (Ranch 85) | 9/4/26 | 1345 | 74.5 6.8 | 44 35 | 51.5 9.6 | 2.5 2.2 | NW | 318 | 5.4 3.4 | 0.00 | 0.01 | 75.3 6.7 | 54.8 0.2 |
| Yountville-South (Ranch 87) | 9/4/26 | 1345 | 74.4 5.3 | 46 27 | 52.5 7.6 | 2.1 0.1 | SW | 218 | 6.6 1.6 | 0.00 | 0.00 | 75.4 6.1 | 54.1 0.2 |
| Max | 79.6 | 49 | 54.2 | 4.7 | - | 11.5 | 0.00 | 0.01 | 80.2 | 55.6 | ||
| Avg | 75.0 | 42 | 50.3 | 2.9 | - | 7.8 | 0.00 | - | - | - | ||
| Min | 69.3 | 36 | 46.1 | 1.3 | - | 4.6 | 0.00 | 0.00 | 69.9 | 44.0 |
| Station | Date | Time | Temp (°F) | RH (%) | Dew Pt (°F) | Wind Spd (mph) | Wind Dir (°) | Wind Gust (mph) | Latest Rain (In) | Daily Rain (In) | Daily Max Temp (°F) | Daily Min Temp (°F) |
|---|---|---|---|---|---|---|---|---|---|---|---|---|
| Mt. Veeder | 9/4/26 | 1345 | 65.0 4.9 | 56 40 | 48.9 10.0 | 1.7 0.2 | E | 92 | 6.3 0.9 | 0.00 | 0.01 | 66.5 6.1 | 49.7 4.0 |
| Soda Canyon | 9/4/26 | 1345 | 73.5 8.1 | 54 32 | 55.9 5.3 | 4.1 0.1 | S | 171 | 9.9 2.5 | 0.00 | 0.00 | 74.1 6.5 | 54.8 2.6 |
| Big Ranch Rd | 9/4/26 | 1345 | 75.8 7.8 | - | - | - | - | - | - | - | 76.1 6.3 | 55.4 2.3 |
| Oak Knoll-East (Ranch 53) | 9/4/26 | 1345 | 74.4 7.4 | 44 36 | 51.3 9.4 | 2.6 0.2 | SSE | 155 | 6.1 1.2 | 0.00 | 0.00 | 75.3 6.4 | 53.6 1.3 |
| Napa-NW (Ranch 54) | 9/4/26 | 1345 | 73.9 4.2 | 44 30 | 51.0 10.2 | 1.3 0.5 | SW | 226 | 6.2 0.4 | 0.00 | 0.00 | 75.8 4.8 | 52.4 0.1 |
| Frisinger Napa-NW | 9/4/26 | 1345 | 75.1 7.7 | 48 37 | 53.9 8.8 | 4.4 0.2 | SSW | 196 | 9.9 0.8 | 0.00 | 0.00 | 75.2 6.2 | 51.0 1.2 |
| Napa-North (Ranch 29) | 9/4/26 | 1345 | 73.5 7.0 | 48 35 | 52.5 8.8 | 3.6 0.9 | S | 179 | 10.4 1.2 | 0.00 | 0.00 | 74.2 7.0 | 52.9 1.5 |
| Mount George (Napa East) | 9/4/26 | 1345 | 72.6 6.3 | 48 35 | 52.1 9.0 | 3.5 0.9 | SW | 231 | 10.5 3.7 | 0.00 | 0.01 | 73.3 2.6 | 51.1 0.5 |
| Napa-East (Palmaz 300') | 9/4/26 | 1345 | 76.2 9.7 | 43 39 | 52.3 8.8 | 3.8 3.7 | SW | 235 | 8.9 0.1 | 0.00 | 0.01 | 77.2 9.9 | 52.3 1.2 |
| Napa-East (Palmaz 1200') | 7/4/26 | 0630 | 49.8 0.1 | 72 2 | 40.8 1.0 | 0.2 0.5 | E | 79 | 2.0 0.4 | - | - | 51.0 1.7 | 48.0 0.9 |
| Napa-East (Palmaz 1400') | 9/4/26 | 1345 | 69.9 10.3 | 53 47 | 51.9 7.7 | 3.9 0.1 | SW | 217 | 11.8 0.7 | 0.00 | 0.00 | 70.4 10.4 | 51.4 2.1 |
| Wooden Valley | 9/4/26 | 1345 | 72.3 6.1 | 42 33 | 48.1 10.1 | 5.6 1.8 | SW | 236 | 11.4 0.4 | 0.00 | 0.00 | 72.7 5.2 | 44.4 12.5 |
| Napa-West Upper (Truchard) | 9/4/26 | 1345 | 75.5 9.2 | 42 45 | 50.8 11.7 | 5.0 2.5 | SW | 227 | 10.1 3.4 | 0.00 | 0.01 | 76.0 7.8 | 51.0 3.8 |
| Napa-West Lower (Truchard) | 9/4/26 | 1345 | 77.3 10.6 | 38 45 | 49.7 11.7 | - | - | - | - | - | 77.8 9.3 | 46.4 2.6 |
| Sunset Rd | 9/4/26 | 1345 | 74.3 6.6 | 41 37 | 49.0 11.6 | 4.1 0.7 | WNW | 290 | 9.9 1.5 | 0.00 | 0.00 | 74.5 5.2 | 51.0 0.9 |
| Napa-South (Toyon Farms) | 9/4/26 | 1345 | 74.7 9.3 | 47 45 | 53.3 9.9 | 3.7 4.1 | W | 266 | 9.5 3.2 | 0.00 | 0.00 | 75.9 8.1 | 52.6 2.5 |
| Dealy Lane (Ranch 80) | 9/4/26 | 1345 | 75.1 6.2 | 37 37 | 47.1 13.4 | 3.8 0.4 | WSW | 245 | 9.4 1.9 | 0.00 | 0.00 | 75.1 5.6 | 48.7 2.9 |
| Carneros (Saintsbury) | 9/4/26 | 1345 | 74.9 10.8 | 39 46 | 48.4 11.1 | 5.5 2.4 | WSW | 241 | 13.3 2.7 | 0.00 | 0.01 | 75.7 9.5 | 45.0 6.5 |
| Suscol Lower (Ranch 35) | 9/4/26 | 1345 | 73.9 7.1 | 44 32 | 50.9 8.4 | 7.7 2.7 | SW | 214 | 14.8 1.1 | 0.00 | 0.01 | 74.4 6.0 | 53.2 0.7 |
| Suscol Mtn (Ranch 93) | 9/4/26 | 1345 | 68.6 6.9 | 53 39 | 50.6 8.6 | 10.8 0.4 | NW | 308 | 16.3 1.0 | 0.00 | 0.01 | 72.5 10.4 | 51.3 4.0 |
| Suscol Upper (Ranch 92) | 9/4/26 | 1345 | 70.0 7.4 | 49 38 | 50.0 8.7 | 8.7 1.1 | SW | 236 | 14.9 0.9 | 0.00 | 0.00 | 70.8 7.5 | 52.4 3.4 |
| Carneros (Mitsuko) | 9/4/26 | 1345 | 74.6 7.3 | - | - | - | - | - | - | - | 75.8 8.1 | 51.6 0.1 |
| Sugarloaf West | 9/4/26 | 1345 | 73.2 6.2 | 53 27 | 55.2 5.7 | 5.4 1.3 | SSW | 209 | 10.7 4.2 | 0.00 | 0.00 | 73.3 5.7 | 53.7 1.8 |
| Stanly (Ranch 45) | 9/4/26 | 1300 | 71.5 4.5 | 54 21 | 54.1 4.8 | 8.0 4.3 | SSW | 194 | 12.1 7.6 | 0.00 | 0.01 | 71.9 4.6 | 50.0 4.4 |
| Carneros (Las Amigas Rd) | 9/4/26 | 1345 | 73.2 6.4 | - | - | - | - | - | - | - | 73.9 6.0 | 54.4 0.8 |
| Carneros (Milton Rd) | 9/4/26 | 1345 | 74.2 7.8 | 47 35 | 52.6 8.2 | - | - | - | 0.00 | 0.00 | 75.1 7.5 | 54.4 2.3 |
| Carneros (Ranch 71) | 9/4/26 | 1345 | 72.2 4.7 | 41 37 | 47.2 13.1 | 6.3 1.1 | WSW | 252 | 12.7 2.6 | 0.00 | 0.00 | 72.7 4.7 | 54.0 3.4 |
| Carneros Upper (Ranch 81) | 9/4/26 | 1345 | 72.7 6.9 | 39 43 | 46.4 13.8 | 5.5 5.5 | SW | 233 | 14.5 2.4 | - | - | 73.8 6.4 | 53.4 3.7 |
| Carneros Lower (Ranch 81) | 9/4/26 | 1330 | 77.6 10.5 | 37 50 | 49.2 13.8 | 1.3 1.6 | WSW | 244 | 6.3 5.2 | 0.00 | 0.00 | 78.0 9.6 | 52.4 1.3 |
| Toyon Remote 1 | 9/4/26 | 1345 | 75.3 9.5 | - | - | - | - | - | - | - | 77.3 8.6 | 49.1 1.5 |
| Toyon Remote 2 | 9/4/26 | 1345 | 75.2 9.1 | - | - | - | - | - | - | - | 75.9 7.6 | 49.9 1.0 |
| Toyon Remote 3 | 9/4/26 | 1345 | 75.6 8.3 | - | - | - | - | - | - | - | 76.7 8.1 | 49.4 0.9 |
| Max | 77.6 | 56 | 55.9 | 10.8 | - | 16.3 | 0.00 | 0.01 | 78.0 | 55.4 | ||
| Avg | 73.6 | 46 | 50.9 | 4.8 | - | 10.7 | 0.00 | - | - | - | ||
| Min | 65.0 | 37 | 46.4 | 1.3 | - | 6.1 | 0.00 | 0.00 | 66.5 | 44.4 |